In Rescue
 
Open Full Screen Window  High Contrast Mode
Wind Gusting 00 knots
04
May 25, 2022 9:38 PM EDT
Present Weather: Light Rain
Weather Information
Wind Direction
  110 °
Wind Speed
  04 kt (5 mph)
Wind Gust
  00 kt (0 mph)
Altimeter
29.90 in
Visibility
10 SM
Temperature
15° C
59° F
Dewpoint
14° C
57° F
Humidity
94%
Sky Condition
Overcast @ 1,100 ft
MVFR

METAR KACB 260138Z AUTO 11004KT 10SM -RA OVC011 15/14 A2990 RMK AO2 T01500140

FAA Disclaimer: The data displayed is for advisory purposes only and is not to be used for flight planning or operations.